Time;durP1;ratioP1;P1;durP2;ratioP2;P2;SDS_P1;SDS_P2;PMS_P1;PMS_P2;Temp;Humidity;BMP_temperature;BMP_pressure;BME280_temperature;BME280_humidity;BME280_pressure;Samples;Min_cycle;Max_cycle;Signal;HPM_P1;HPM_P2
2022/06/25 00:02:08;;;;;;;19.75;17.85;;;;;;;;;;5047601;27;92763;-75
2022/06/25 00:07:19;;;;;;;19.65;17.55;;;;;;;;;;5041319;27;92770;-75
2022/06/25 00:09:45;;;;;;;19.55;17.55;;;;;;;;;;5044346;27;93299;-75
2022/06/25 00:14:57;;;;;;;17.70;15.80;;;;;;;;;;5046750;27;92510;-75
2022/06/25 00:17:23;;;;;;;17.20;15.52;;;;;;;;;;5032289;27;94871;-74
2022/06/25 00:19:50;;;;;;;18.10;16.25;;;;;;;;;;5033197;27;93354;-75
2022/06/25 00:22:16;;;;;;;17.52;15.93;;;;;;;;;;5042421;27;92507;-74
2022/06/25 00:24:42;;;;;;;16.45;14.43;;;;;;;;;;5040301;27;92964;-74
2022/06/25 00:27:09;;;;;;;17.85;14.20;;;;;;;;;;5046389;27;92530;-75
2022/06/25 00:29:35;;;;;;;18.65;15.43;;;;;;;;;;5049761;27;93614;-75
2022/06/25 00:32:01;;;;;;;19.80;14.23;;;;;;;;;;5033893;27;93014;-74
2022/06/25 00:34:28;;;;;;;17.15;15.35;;;;;;;;;;5035301;27;91762;-75
2022/06/25 00:36:54;;;;;;;17.15;13.88;;;;;;;;;;5041776;27;93472;-74
2022/06/25 00:39:21;;;;;;;14.52;13.13;;;;;;;;;;5034780;27;92925;-74
2022/06/25 00:41:47;;;;;;;14.18;12.77;;;;;;;;;;5036318;27;95318;-75
2022/06/25 00:44:16;;;;;;;16.23;14.55;;;;;;;;;;5019824;28;95275;-75
2022/06/25 00:46:45;;;;;;;15.40;13.77;;;;;;;;;;5048148;27;93254;-75
2022/06/25 00:49:11;;;;;;;13.82;12.25;;;;;;;;;;5027951;27;94113;-74
2022/06/25 00:51:39;;;;;;;13.52;12.27;;;;;;;;;;5036081;27;94204;-75
2022/06/25 00:54:08;;;;;;;13.23;11.93;;;;;;;;;;5052800;27;92572;-74
2022/06/25 00:56:39;;;;;;;13.10;11.10;;;;;;;;;;5043438;27;93049;-75
2022/06/25 00:59:06;;;;;;;14.93;12.02;;;;;;;;;;5034622;27;92302;-74
2022/06/25 01:01:33;;;;;;;14.13;11.77;;;;;;;;;;5050381;27;92460;-74
2022/06/25 01:03:59;;;;;;;17.25;11.60;;;;;;;;;;5036344;27;93007;-74
2022/06/25 01:06:28;;;;;;;15.63;11.85;;;;;;;;;;5051625;27;95616;-74
2022/06/25 01:08:56;;;;;;;11.77;10.85;;;;;;;;;;5044599;27;92636;-74
2022/06/25 01:11:23;;;;;;;15.13;11.18;;;;;;;;;;5018956;27;94362;-74
2022/06/25 01:13:49;;;;;;;13.10;11.13;;;;;;;;;;5032965;27;92404;-74
2022/06/25 01:16:16;;;;;;;15.18;11.90;;;;;;;;;;5015758;28;94674;-74
2022/06/25 01:18:43;;;;;;;14.20;12.80;;;;;;;;;;5023113;27;93345;-74
2022/06/25 01:21:10;;;;;;;12.20;11.23;;;;;;;;;;5053045;27;92556;-74
2022/06/25 01:23:37;;;;;;;13.90;12.25;;;;;;;;;;5038743;27;93925;-74
2022/06/25 01:26:03;;;;;;;14.57;11.68;;;;;;;;;;5022692;27;94582;-74
2022/06/25 01:28:29;;;;;;;15.63;10.85;;;;;;;;;;5024186;27;92724;-74
2022/06/25 01:30:56;;;;;;;22.55;12.10;;;;;;;;;;5020258;27;95691;-75
2022/06/25 01:33:22;;;;;;;13.52;11.75;;;;;;;;;;5042207;27;92924;-74
2022/06/25 01:35:48;;;;;;;12.38;11.35;;;;;;;;;;5033523;27;93148;-74
2022/06/25 01:38:21;;;;;;;11.70;10.60;;;;;;;;;;5050823;27;93494;-74
2022/06/25 01:40:47;;;;;;;11.63;10.45;;;;;;;;;;5045162;27;92537;-75
2022/06/25 01:43:13;;;;;;;11.88;10.68;;;;;;;;;;5050896;27;92816;-74
2022/06/25 01:45:41;;;;;;;12.77;11.50;;;;;;;;;;5024852;27;95340;-74
2022/06/25 01:48:08;;;;;;;16.38;11.55;;;;;;;;;;5018409;27;92628;-74
2022/06/25 01:50:36;;;;;;;12.52;11.15;;;;;;;;;;5018072;28;93508;-74
2022/06/25 01:53:04;;;;;;;15.52;11.35;;;;;;;;;;5021969;27;92539;-74
2022/06/25 01:55:31;;;;;;;13.30;10.40;;;;;;;;;;5014237;27;95192;-74
2022/06/25 01:57:57;;;;;;;13.32;10.95;;;;;;;;;;5028576;27;94901;-74
2022/06/25 02:00:25;;;;;;;14.60;11.05;;;;;;;;;;5025499;27;92540;-74
2022/06/25 02:02:56;;;;;;;;;;;;;;;;;;5019652;27;94116;-74
2022/06/25 02:08:09;;;;;;;11.68;10.48;;;;;;;;;;5014166;27;92503;-74
2022/06/25 02:10:36;;;;;;;13.05;11.38;;;;;;;;;;5031378;27;93181;-74
2022/06/25 02:13:03;;;;;;;12.73;11.52;;;;;;;;;;5036101;27;92853;-74
2022/06/25 02:15:29;;;;;;;11.88;10.68;;;;;;;;;;5048867;27;92890;-74
2022/06/25 02:17:55;;;;;;;12.13;10.90;;;;;;;;;;5043389;27;93096;-74
2022/06/25 02:20:22;;;;;;;16.17;11.43;;;;;;;;;;5018228;28;94993;-74
2022/06/25 02:22:49;;;;;;;12.63;11.25;;;;;;;;;;5029054;27;95377;-74
2022/06/25 02:25:15;;;;;;;12.10;10.75;;;;;;;;;;5020243;27;94147;-74
2022/06/25 02:27:42;;;;;;;12.73;11.40;;;;;;;;;;5043341;27;92542;-74
2022/06/25 02:30:08;;;;;;;12.98;11.50;;;;;;;;;;5032105;27;94108;-74
2022/06/25 02:32:35;;;;;;;14.52;11.77;;;;;;;;;;5039478;27;92429;-74
2022/06/25 02:35:01;;;;;;;20.70;13.05;;;;;;;;;;5036371;27;92486;-74
2022/06/25 02:37:28;;;;;;;12.35;11.13;;;;;;;;;;5017119;28;92556;-74
2022/06/25 02:39:54;;;;;;;18.02;10.45;;;;;;;;;;5040064;27;92457;-74
2022/06/25 02:42:21;;;;;;;12.65;11.27;;;;;;;;;;5040622;27;92790;-74
2022/06/25 02:44:47;;;;;;;15.48;11.07;;;;;;;;;;5046649;27;95579;-74
2022/06/25 02:47:14;;;;;;;10.98;10.07;;;;;;;;;;5014984;28;92533;-74
2022/06/25 02:50:03;;;;;;;15.15;10.30;;;;;;;;;;5024331;27;95384;-74
2022/06/25 02:52:30;;;;;;;15.10;11.25;;;;;;;;;;5019810;28;95786;-74
2022/06/25 02:54:56;;;;;;;12.88;10.48;;;;;;;;;;5035621;27;93807;-74
2022/06/25 03:00:16;;;;;;;11.73;10.63;;;;;;;;;;5024986;27;92494;-74
2022/06/25 03:02:43;;;;;;;11.48;10.30;;;;;;;;;;5033682;27;94991;-74
2022/06/25 03:05:10;;;;;;;12.32;10.27;;;;;;;;;;5014599;27;95447;-74
2022/06/25 03:07:38;;;;;;;11.73;9.63;;;;;;;;;;5044633;27;92544;-74
2022/06/25 03:10:05;;;;;;;9.95;9.05;;;;;;;;;;5014036;28;96025;-74
2022/06/25 03:12:32;;;;;;;10.73;9.63;;;;;;;;;;5013413;27;95186;-74
2022/06/25 03:15:14;;;;;;;11.40;9.83;;;;;;;;;;5023797;27;92488;-74
2022/06/25 03:17:40;;;;;;;21.23;9.18;;;;;;;;;;5015198;28;93126;-74
2022/06/25 03:20:25;;;;;;;11.45;9.07;;;;;;;;;;5051454;27;92492;-74
2022/06/25 03:22:55;;;;;;;9.70;8.63;;;;;;;;;;5014641;28;95255;-74
2022/06/25 03:25:23;;;;;;;9.85;8.85;;;;;;;;;;5014477;27;94225;-74
2022/06/25 03:27:49;;;;;;;9.90;8.02;;;;;;;;;;5014596;28;91845;-74
2022/06/25 03:30:16;;;;;;;12.60;8.35;;;;;;;;;;5033188;27;92572;-74
2022/06/25 03:32:44;;;;;;;12.00;8.27;;;;;;;;;;5021472;27;95520;-74
2022/06/25 03:35:22;;;;;;;13.00;8.00;;;;;;;;;;5022320;27;95433;-74
2022/06/25 03:38:09;;;;;;;9.68;7.97;;;;;;;;;;5056082;27;95029;-74
2022/06/25 03:40:35;;;;;;;10.38;7.55;;;;;;;;;;5036884;27;95693;-74
2022/06/25 03:43:05;;;;;;;8.38;7.35;;;;;;;;;;5032167;27;93649;-74
2022/06/25 03:45:34;;;;;;;10.70;6.97;;;;;;;;;;5027431;28;95490;-74
2022/06/25 03:48:02;;;;;;;12.52;7.03;;;;;;;;;;5017441;27;93226;-74
2022/06/25 03:50:34;;;;;;;10.60;7.07;;;;;;;;;;5032706;27;92565;-74
2022/06/25 03:53:01;;;;;;;6.82;6.32;;;;;;;;;;5027790;27;95043;-74
2022/06/25 03:55:27;;;;;;;9.10;5.95;;;;;;;;;;5035891;27;92934;-74
2022/06/25 03:58:14;;;;;;;8.30;5.97;;;;;;;;;;5023598;27;95258;-74
2022/06/25 04:00:40;;;;;;;6.30;5.60;;;;;;;;;;5035630;27;94913;-74
2022/06/25 04:03:08;;;;;;;6.22;5.47;;;;;;;;;;5038141;27;92941;-74
2022/06/25 04:06:09;;;;;;;6.30;5.72;;;;;;;;;;5024593;27;93847;-74
2022/06/25 04:08:45;;;;;;;7.18;5.88;;;;;;;;;;5016789;28;92525;-74
2022/06/25 04:11:14;;;;;;;7.22;5.72;;;;;;;;;;5025759;27;93988;-74
2022/06/25 04:13:44;;;;;;;6.88;5.65;;;;;;;;;;5018123;28;95106;-74
2022/06/25 04:16:12;;;;;;;6.05;5.45;;;;;;;;;;5016834;27;92561;-75
2022/06/25 04:18:38;;;;;;;9.77;5.57;;;;;;;;;;5020296;27;95633;-75
2022/06/25 04:21:06;;;;;;;5.30;4.70;;;;;;;;;;5021309;28;95186;-75
2022/06/25 04:23:32;;;;;;;5.60;5.00;;;;;;;;;;5035463;27;92543;-74
2022/06/25 04:26:00;;;;;;;4.70;4.30;;;;;;;;;;5024624;28;95292;-74
2022/06/25 04:31:27;;;;;;;8.23;4.65;;;;;;;;;;5028563;27;95269;-75
2022/06/25 04:33:54;;;;;;;10.35;4.63;;;;;;;;;;5038469;27;92976;-75
2022/06/25 04:36:20;;;;;;;5.68;4.72;;;;;;;;;;5028041;28;92524;-74
2022/06/25 04:38:53;;;;;;;6.05;4.60;;;;;;;;;;5017220;27;93425;-74
2022/06/25 04:41:20;;;;;;;5.95;4.72;;;;;;;;;;5022310;27;95777;-75
2022/06/25 04:43:50;;;;;;;6.40;4.18;;;;;;;;;;5036381;27;91738;-75
2022/06/25 04:46:21;;;;;;;7.18;4.15;;;;;;;;;;5028764;27;94382;-75
2022/06/25 04:48:49;;;;;;;7.97;4.07;;;;;;;;;;5022236;27;95555;-75
2022/06/25 04:51:22;;;;;;;6.32;4.47;;;;;;;;;;5015186;28;94908;-75
2022/06/25 04:53:55;;;;;;;7.88;3.90;;;;;;;;;;5028367;27;94237;-75
2022/06/25 04:56:30;;;;;;;6.72;4.13;;;;;;;;;;5023300;28;92682;-74
2022/06/25 04:58:58;;;;;;;6.28;3.88;;;;;;;;;;5016146;27;93240;-74
2022/06/25 05:01:43;;;;;;;6.35;3.40;;;;;;;;;;5031987;27;92649;-75
2022/06/25 05:04:10;;;;;;;9.30;3.90;;;;;;;;;;5049230;27;93889;-75
2022/06/25 05:06:37;;;;;;;9.10;3.65;;;;;;;;;;5026180;28;95802;-75
2022/06/25 05:09:03;;;;;;;4.85;3.55;;;;;;;;;;5017136;27;92499;-76
2022/06/25 05:11:30;;;;;;;9.82;3.97;;;;;;;;;;5023565;27;92727;-75
2022/06/25 05:13:56;;;;;;;7.28;3.72;;;;;;;;;;5044963;27;92932;-75
2022/06/25 05:16:23;;;;;;;5.05;3.10;;;;;;;;;;5033006;27;95027;-75
2022/06/25 05:18:51;;;;;;;5.13;3.10;;;;;;;;;;5015552;28;96625;-75
2022/06/25 05:21:17;;;;;;;3.40;3.10;;;;;;;;;;5024210;27;95119;-75
2022/06/25 05:23:44;;;;;;;5.80;3.20;;;;;;;;;;5028204;27;92538;-75
2022/06/25 05:26:11;;;;;;;4.05;2.78;;;;;;;;;;5027468;27;95060;-75
2022/06/25 05:28:37;;;;;;;6.00;2.95;;;;;;;;;;5033130;27;95900;-75
2022/06/25 05:31:04;;;;;;;5.47;2.85;;;;;;;;;;5054514;27;92431;-75
2022/06/25 05:33:32;;;;;;;5.38;2.40;;;;;;;;;;5029769;27;95342;-75
2022/06/25 05:35:58;;;;;;;3.28;2.65;;;;;;;;;;5016200;28;92682;-75
2022/06/25 05:38:25;;;;;;;2.95;2.50;;;;;;;;;;5034648;27;93023;-75
2022/06/25 05:40:51;;;;;;;10.05;3.03;;;;;;;;;;5012877;27;97315;-75
2022/06/25 05:43:17;;;;;;;5.75;2.33;;;;;;;;;;5043025;27;92479;-75
2022/06/25 05:45:44;;;;;;;7.97;2.92;;;;;;;;;;5044215;27;93991;-75
2022/06/25 05:48:10;;;;;;;4.25;2.65;;;;;;;;;;5033686;27;94119;-75
2022/06/25 05:50:37;;;;;;;2.97;2.35;;;;;;;;;;5048822;27;92518;-75
2022/06/25 05:53:03;;;;;;;3.50;2.55;;;;;;;;;;5045924;27;93047;-75
2022/06/25 05:55:30;;;;;;;7.45;3.00;;;;;;;;;;5032849;27;92546;-75
2022/06/25 05:57:56;;;;;;;2.85;2.30;;;;;;;;;;5037990;27;93145;-77
2022/06/25 06:00:22;;;;;;;5.82;2.70;;;;;;;;;;5043537;27;94075;-77
2022/06/25 06:02:50;;;;;;;7.43;2.67;;;;;;;;;;5039447;27;92515;-76
2022/06/25 06:05:16;;;;;;;6.97;2.97;;;;;;;;;;5035263;27;96723;-76
2022/06/25 06:07:43;;;;;;;3.92;2.33;;;;;;;;;;5031151;27;94349;-75
2022/06/25 06:10:09;;;;;;;5.07;2.75;;;;;;;;;;5034861;27;92493;-75
2022/06/25 06:12:36;;;;;;;3.65;2.70;;;;;;;;;;5036370;27;92969;-76
2022/06/25 06:15:02;;;;;;;5.57;2.30;;;;;;;;;;5037004;27;94259;-75
2022/06/25 06:17:29;;;;;;;2.25;2.13;;;;;;;;;;5041836;27;93995;-76
2022/06/25 06:19:56;;;;;;;4.00;2.15;;;;;;;;;;5041178;27;94413;-76
2022/06/25 06:22:23;;;;;;;3.78;2.25;;;;;;;;;;5043862;27;92601;-74
2022/06/25 06:24:49;;;;;;;4.72;2.67;;;;;;;;;;5040479;27;92513;-74
2022/06/25 06:27:16;;;;;;;3.45;2.28;;;;;;;;;;5038528;27;93509;-72
2022/06/25 06:29:42;;;;;;;3.10;2.33;;;;;;;;;;5026997;27;95110;-76
2022/06/25 06:32:08;;;;;;;10.65;2.10;;;;;;;;;;5039444;27;96708;-74
2022/06/25 06:34:35;;;;;;;4.22;2.35;;;;;;;;;;5034057;27;94191;-74
2022/06/25 06:37:01;;;;;;;3.83;2.35;;;;;;;;;;5038086;27;92546;-74
2022/06/25 06:39:28;;;;;;;11.80;2.75;;;;;;;;;;5026633;27;94176;-74
2022/06/25 06:41:54;;;;;;;2.90;2.00;;;;;;;;;;5026257;27;93347;-74
2022/06/25 06:44:20;;;;;;;4.20;2.53;;;;;;;;;;5035760;27;93839;-74
2022/06/25 06:46:47;;;;;;;11.07;2.42;;;;;;;;;;5034636;27;93431;-74
2022/06/25 06:49:13;;;;;;;3.63;2.50;;;;;;;;;;5030644;27;92528;-74
2022/06/25 06:51:39;;;;;;;5.80;2.30;;;;;;;;;;5036494;27;94054;-74
2022/06/25 06:54:06;;;;;;;4.60;2.90;;;;;;;;;;5034207;27;96643;-74
2022/06/25 06:56:32;;;;;;;5.28;2.55;;;;;;;;;;5027960;27;94041;-74
2022/06/25 06:58:59;;;;;;;5.45;2.30;;;;;;;;;;5033458;27;94057;-74
2022/06/25 07:01:26;;;;;;;3.97;2.70;;;;;;;;;;5031388;27;93056;-74
2022/06/25 07:03:53;;;;;;;3.50;2.42;;;;;;;;;;5033859;27;94080;-74
2022/06/25 07:06:19;;;;;;;4.80;2.67;;;;;;;;;;5032222;27;95062;-75
2022/06/25 07:08:46;;;;;;;6.25;2.65;;;;;;;;;;5031453;27;92553;-75
2022/06/25 07:14:13;;;;;;;6.10;2.20;;;;;;;;;;4997676;27;96359;-74
2022/06/25 07:16:40;;;;;;;10.23;3.08;;;;;;;;;;5037291;27;93498;-75
2022/06/25 07:19:06;;;;;;;7.05;2.60;;;;;;;;;;5040678;27;95689;-74
2022/06/25 07:21:32;;;;;;;4.82;2.20;;;;;;;;;;5038596;27;93812;-74
2022/06/25 07:24:00;;;;;;;6.53;2.42;;;;;;;;;;5037348;27;93953;-74
2022/06/25 07:26:27;;;;;;;5.05;1.83;;;;;;;;;;5038498;27;93596;-74
2022/06/25 07:28:54;;;;;;;3.63;2.00;;;;;;;;;;5040868;27;93213;-76
2022/06/25 07:31:20;;;;;;;6.53;2.28;;;;;;;;;;5036098;27;93971;-74
2022/06/25 07:33:47;;;;;;;6.00;2.40;;;;;;;;;;5046160;27;94119;-74
2022/06/25 07:36:13;;;;;;;4.10;2.30;;;;;;;;;;5050942;27;91720;-74
2022/06/25 07:38:40;;;;;;;5.03;2.17;;;;;;;;;;5044468;27;92494;-72
2022/06/25 07:41:06;;;;;;;8.30;2.30;;;;;;;;;;5038327;27;93401;-75
2022/06/25 07:43:33;;;;;;;4.65;2.33;;;;;;;;;;5049402;27;95474;-77
2022/06/25 07:45:59;;;;;;;4.22;2.05;;;;;;;;;;5035806;27;94149;-75
2022/06/25 07:48:26;;;;;;;5.47;2.30;;;;;;;;;;5036034;27;92460;-74
2022/06/25 07:53:37;;;;;;;2.30;2.08;;;;;;;;;;5035120;27;94008;-74
2022/06/25 07:56:04;;;;;;;4.82;2.40;;;;;;;;;;5043904;27;92542;-74
2022/06/25 07:58:31;;;;;;;2.70;2.30;;;;;;;;;;5044523;27;94064;-75
2022/06/25 08:00:57;;;;;;;5.28;2.65;;;;;;;;;;5035854;27;93151;-74
2022/06/25 08:03:24;;;;;;;2.95;2.42;;;;;;;;;;5047080;27;92426;-75
2022/06/25 08:05:51;;;;;;;9.85;2.70;;;;;;;;;;5034875;27;92428;-74
2022/06/25 08:08:17;;;;;;;8.05;2.90;;;;;;;;;;5024450;27;95200;-75
2022/06/25 08:10:44;;;;;;;7.68;2.60;;;;;;;;;;5037974;27;95421;-75
2022/06/25 08:13:17;;;;;;;3.83;2.63;;;;;;;;;;5043203;27;94155;-75
2022/06/25 08:15:43;;;;;;;3.47;2.58;;;;;;;;;;5038965;27;92497;-75
2022/06/25 08:18:11;;;;;;;4.28;2.88;;;;;;;;;;5042392;27;95067;-75
2022/06/25 08:20:37;;;;;;;8.60;3.78;;;;;;;;;;5037655;27;93262;-75
2022/06/25 08:23:04;;;;;;;4.50;2.30;;;;;;;;;;5041416;27;92900;-75
2022/06/25 08:25:30;;;;;;;4.32;3.25;;;;;;;;;;5046751;27;93710;-75
2022/06/25 08:28:04;;;;;;;4.15;2.42;;;;;;;;;;5035106;27;92596;-75
2022/06/25 08:30:32;;;;;;;5.00;2.53;;;;;;;;;;5050356;27;93838;-76
2022/06/25 08:32:58;;;;;;;2.70;2.35;;;;;;;;;;5033109;27;96870;-75
2022/06/25 08:35:25;;;;;;;4.93;2.72;;;;;;;;;;5035124;27;92512;-75
2022/06/25 08:37:52;;;;;;;2.97;2.30;;;;;;;;;;5034000;27;93034;-75
2022/06/25 08:40:20;;;;;;;10.23;3.03;;;;;;;;;;5035472;27;94040;-75
2022/06/25 08:42:49;;;;;;;2.55;2.28;;;;;;;;;;5035096;27;92880;-75
2022/06/25 08:45:17;;;;;;;8.77;2.50;;;;;;;;;;5049004;27;92946;-74
2022/06/25 08:47:44;;;;;;;6.28;2.85;;;;;;;;;;5037765;27;94709;-74
2022/06/25 08:50:11;;;;;;;6.72;2.67;;;;;;;;;;5035039;27;94172;-75
2022/06/25 08:52:38;;;;;;;4.38;2.42;;;;;;;;;;5036370;27;93393;-75
2022/06/25 08:55:05;;;;;;;5.63;2.80;;;;;;;;;;5035395;27;92471;-75
2022/06/25 08:57:32;;;;;;;3.60;2.70;;;;;;;;;;5038418;27;94938;-76
2022/06/25 08:59:59;;;;;;;6.47;2.60;;;;;;;;;;5044054;27;94225;-74
2022/06/25 09:02:26;;;;;;;4.10;2.80;;;;;;;;;;5047731;27;92500;-75
2022/06/25 09:04:53;;;;;;;3.45;2.42;;;;;;;;;;5038849;27;93583;-76
2022/06/25 09:07:21;;;;;;;6.28;2.88;;;;;;;;;;5042814;27;94049;-75
2022/06/25 09:09:49;;;;;;;4.55;3.25;;;;;;;;;;5039162;27;94757;-77
2022/06/25 09:12:16;;;;;;;5.50;2.88;;;;;;;;;;5034647;27;94246;-74
2022/06/25 09:14:43;;;;;;;5.28;3.30;;;;;;;;;;5040837;27;91727;-75
2022/06/25 09:17:12;;;;;;;6.05;3.47;;;;;;;;;;5035103;27;93334;-75
2022/06/25 09:19:43;;;;;;;4.22;2.92;;;;;;;;;;5033502;27;94668;-76
2022/06/25 09:22:15;;;;;;;5.35;3.10;;;;;;;;;;5041190;27;94862;-75
2022/06/25 09:24:42;;;;;;;7.95;3.38;;;;;;;;;;5036513;27;95460;-76
2022/06/25 09:27:08;;;;;;;4.53;2.80;;;;;;;;;;5041942;27;94282;-76
2022/06/25 09:29:45;;;;;;;9.40;3.42;;;;;;;;;;5043924;27;92825;-75
2022/06/25 09:32:13;;;;;;;5.15;3.08;;;;;;;;;;5040913;27;94811;-76
2022/06/25 09:34:40;;;;;;;5.25;2.80;;;;;;;;;;5037350;27;92562;-75
2022/06/25 09:37:16;;;;;;;7.22;2.78;;;;;;;;;;5041500;27;94087;-75
2022/06/25 09:39:45;;;;;;;3.03;2.72;;;;;;;;;;5033500;27;93500;-76
2022/06/25 09:42:25;;;;;;;3.25;1.92;;;;;;;;;;5034697;27;92524;-75
2022/06/25 09:45:06;;;;;;;4.22;2.45;;;;;;;;;;5040096;27;94005;-75
2022/06/25 09:47:36;;;;;;;3.90;2.35;;;;;;;;;;5048789;27;96622;-75
2022/06/25 09:50:04;;;;;;;6.22;2.83;;;;;;;;;;5042684;27;94109;-76
2022/06/25 09:52:31;;;;;;;2.92;2.25;;;;;;;;;;5044265;27;94157;-75
2022/06/25 09:54:58;;;;;;;4.82;2.42;;;;;;;;;;5041927;27;94867;-74
2022/06/25 09:57:25;;;;;;;3.88;2.55;;;;;;;;;;5037331;27;93934;-74
2022/06/25 09:59:54;;;;;;;4.00;2.75;;;;;;;;;;5034351;27;94325;-74
2022/06/25 10:02:23;;;;;;;4.47;3.00;;;;;;;;;;5041789;27;94023;-75
2022/06/25 10:04:49;;;;;;;3.40;2.08;;;;;;;;;;5041626;27;93962;-74
2022/06/25 10:07:17;;;;;;;2.47;2.33;;;;;;;;;;5030394;27;94136;-74
2022/06/25 10:09:45;;;;;;;5.05;2.70;;;;;;;;;;5033621;27;92644;-75
2022/06/25 10:12:13;;;;;;;2.35;2.15;;;;;;;;;;5030745;27;98239;-73
2022/06/25 10:14:39;;;;;;;4.82;2.88;;;;;;;;;;5032110;27;95001;-75
2022/06/25 10:17:06;;;;;;;3.47;2.65;;;;;;;;;;5035174;27;94251;-79
2022/06/25 10:19:33;;;;;;;2.85;2.50;;;;;;;;;;5036493;27;94156;-75
2022/06/25 10:22:00;;;;;;;3.28;2.97;;;;;;;;;;5031211;27;94317;-75
2022/06/25 10:24:27;;;;;;;3.80;2.70;;;;;;;;;;5031742;27;93833;-73
2022/06/25 10:26:53;;;;;;;3.13;2.38;;;;;;;;;;5032668;27;94384;-78
2022/06/25 10:29:23;;;;;;;4.47;2.38;;;;;;;;;;5032722;27;91761;-75
2022/06/25 10:31:50;;;;;;;3.78;2.70;;;;;;;;;;5032567;27;93577;-75
2022/06/25 10:34:16;;;;;;;4.25;2.50;;;;;;;;;;5033292;27;93656;-75
2022/06/25 10:36:44;;;;;;;2.47;2.22;;;;;;;;;;5033192;27;96475;-76
2022/06/25 10:39:22;;;;;;;4.57;2.63;;;;;;;;;;5030673;27;93312;-73
2022/06/25 10:44:53;;;;;;;3.15;2.22;;;;;;;;;;5038782;27;93979;-77
2022/06/25 10:47:36;;;;;;;7.57;2.67;;;;;;;;;;5036379;27;92565;-74
2022/06/25 10:50:36;;;;;;;4.13;2.55;;;;;;;;;;5037127;27;93229;-73
2022/06/25 10:53:02;;;;;;;2.63;2.20;;;;;;;;;;4985174;27;93313;-76
2022/06/25 10:55:37;;;;;;;4.07;2.45;;;;;;;;;;5029366;27;93271;-73
2022/06/25 10:58:12;;;;;;;2.97;2.55;;;;;;;;;;5028134;27;93606;-76
2022/06/25 11:00:49;;;;;;;6.07;2.25;;;;;;;;;;5037608;27;94202;-74
2022/06/25 11:03:16;;;;;;;3.17;2.38;;;;;;;;;;5031836;27;95531;-76
2022/06/25 11:05:43;;;;;;;4.97;2.42;;;;;;;;;;5035289;27;96330;-75
2022/06/25 11:08:10;;;;;;;5.03;2.20;;;;;;;;;;5033068;27;94185;-73
2022/06/25 11:10:37;;;;;;;4.78;2.42;;;;;;;;;;5035088;27;92900;-73
2022/06/25 11:13:03;;;;;;;5.03;2.67;;;;;;;;;;5041084;27;93823;-73
2022/06/25 11:15:43;;;;;;;3.17;2.53;;;;;;;;;;5035005;27;94123;-73
2022/06/25 11:18:10;;;;;;;6.38;2.42;;;;;;;;;;5045169;27;93713;-73
2022/06/25 11:20:38;;;;;;;4.55;2.40;;;;;;;;;;5033267;27;93875;-73
2022/06/25 11:23:04;;;;;;;3.60;2.30;;;;;;;;;;5040796;27;94171;-74
2022/06/25 11:28:53;;;;;;;6.65;2.60;;;;;;;;;;5026533;27;96651;-73
2022/06/25 11:31:21;;;;;;;5.85;2.53;;;;;;;;;;5028701;27;92933;-73
2022/06/25 11:33:49;;;;;;;3.65;2.60;;;;;;;;;;5051401;27;93515;-73
2022/06/25 11:36:16;;;;;;;11.30;2.70;;;;;;;;;;5051057;27;93305;-73
2022/06/25 11:38:43;;;;;;;4.15;2.90;;;;;;;;;;5030999;27;92584;-73
2022/06/25 11:41:31;;;;;;;3.47;2.40;;;;;;;;;;5033173;27;94317;-73
2022/06/25 11:44:05;;;;;;;6.93;2.55;;;;;;;;;;5043178;27;94570;-73
2022/06/25 11:46:35;;;;;;;4.20;2.50;;;;;;;;;;5033022;27;91939;-73
2022/06/25 11:49:05;;;;;;;4.63;2.13;;;;;;;;;;5045193;27;92440;-75
2022/06/25 11:51:34;;;;;;;2.45;2.25;;;;;;;;;;5031484;27;92528;-75
2022/06/25 11:54:04;;;;;;;2.58;2.17;;;;;;;;;;5029919;27;95363;-73
2022/06/25 11:56:31;;;;;;;7.93;3.67;;;;;;;;;;5034519;27;94899;-73
2022/06/25 11:58:57;;;;;;;4.68;3.50;;;;;;;;;;5035889;27;92473;-74
2022/06/25 12:01:31;;;;;;;5.63;3.80;;;;;;;;;;5035137;27;94175;-73
2022/06/25 12:03:57;;;;;;;9.00;4.00;;;;;;;;;;5035211;27;94129;-76
2022/06/25 12:06:24;;;;;;;5.40;4.22;;;;;;;;;;5035411;27;92986;-73
2022/06/25 12:08:51;;;;;;;7.00;4.80;;;;;;;;;;5038558;27;93136;-73
2022/06/25 12:11:18;;;;;;;12.55;4.80;;;;;;;;;;5039414;27;91724;-73
2022/06/25 12:13:46;;;;;;;5.85;4.38;;;;;;;;;;5042974;27;93434;-73
2022/06/25 12:16:12;;;;;;;9.50;4.10;;;;;;;;;;5037051;27;93176;-73
2022/06/25 12:18:40;;;;;;;7.13;4.00;;;;;;;;;;5033722;27;96410;-73
2022/06/25 12:21:07;;;;;;;6.38;4.55;;;;;;;;;;5034700;27;96227;-73
2022/06/25 12:23:50;;;;;;;5.38;4.85;;;;;;;;;;5043497;27;94353;-74
2022/06/25 12:26:16;;;;;;;;;;;;;;;;;;5049934;27;92482;-73
2022/06/25 12:28:42;;;;;;;8.18;4.97;;;;;;;;;;5040792;27;123511;-73
2022/06/25 12:31:15;;;;;;;8.30;5.32;;;;;;;;;;5036376;27;93296;-73
2022/06/25 12:33:49;;;;;;;10.32;4.68;;;;;;;;;;5034882;27;92969;-73
2022/06/25 12:36:17;;;;;;;13.88;5.32;;;;;;;;;;5039364;27;93375;-73
2022/06/25 12:38:44;;;;;;;6.43;5.05;;;;;;;;;;5046575;27;92432;-73
2022/06/25 12:41:10;;;;;;;9.70;5.10;;;;;;;;;;5034936;27;92880;-73
2022/06/25 12:43:44;;;;;;;12.18;5.18;;;;;;;;;;5039220;27;97045;-73
2022/06/25 12:46:11;;;;;;;4.25;3.55;;;;;;;;;;5043501;27;92517;-75
2022/06/25 12:48:38;;;;;;;5.88;4.85;;;;;;;;;;5034207;27;93785;-73
2022/06/25 12:51:08;;;;;;;5.20;4.00;;;;;;;;;;5037755;27;93960;-73
2022/06/25 12:53:35;;;;;;;7.67;4.27;;;;;;;;;;5034936;27;93986;-74
2022/06/25 12:56:02;;;;;;;7.05;3.78;;;;;;;;;;5034092;27;94241;-73
2022/06/25 12:58:33;;;;;;;5.75;4.10;;;;;;;;;;5035317;27;92479;-73
2022/06/25 13:00:59;;;;;;;5.20;3.78;;;;;;;;;;5034584;27;93099;-73
2022/06/25 13:03:25;;;;;;;6.72;3.58;;;;;;;;;;5035395;27;94113;-73
2022/06/25 13:05:52;;;;;;;8.98;4.45;;;;;;;;;;5041636;27;92898;-72
2022/06/25 13:08:18;;;;;;;6.13;4.22;;;;;;;;;;5038110;27;94953;-73
2022/06/25 13:10:46;;;;;;;7.68;4.43;;;;;;;;;;5042502;27;93429;-73
2022/06/25 13:13:12;;;;;;;4.00;3.60;;;;;;;;;;5044337;27;92478;-73
2022/06/25 13:15:39;;;;;;;5.63;3.95;;;;;;;;;;5036945;27;93310;-73
2022/06/25 13:18:05;;;;;;;5.15;4.15;;;;;;;;;;5036567;27;96031;-73
2022/06/25 13:20:32;;;;;;;5.32;3.83;;;;;;;;;;5033941;27;95241;-73
2022/06/25 13:22:58;;;;;;;4.25;3.53;;;;;;;;;;5029645;27;94171;-73
2022/06/25 13:25:24;;;;;;;6.03;3.25;;;;;;;;;;5038118;27;91987;-72
2022/06/25 13:27:51;;;;;;;4.03;3.05;;;;;;;;;;5031338;27;94496;-72
2022/06/25 13:30:18;;;;;;;3.72;3.17;;;;;;;;;;5033154;27;94248;-72
2022/06/25 13:33:04;;;;;;;7.07;3.65;;;;;;;;;;5029521;27;94894;-72
2022/06/25 13:35:30;;;;;;;3.40;3.10;;;;;;;;;;5035457;27;95448;-73
2022/06/25 13:37:57;;;;;;;5.68;3.42;;;;;;;;;;5028040;27;93277;-72
2022/06/25 13:40:23;;;;;;;10.35;3.60;;;;;;;;;;5031882;27;94235;-73
2022/06/25 13:42:49;;;;;;;3.40;3.00;;;;;;;;;;5033316;27;94531;-72
2022/06/25 13:45:16;;;;;;;3.85;2.95;;;;;;;;;;5032843;27;94382;-72
2022/06/25 13:47:42;;;;;;;5.43;2.92;;;;;;;;;;5031929;27;93740;-72
2022/06/25 13:50:09;;;;;;;3.15;2.85;;;;;;;;;;5037116;27;92761;-72
2022/06/25 13:52:35;;;;;;;4.35;2.88;;;;;;;;;;5034554;27;93574;-72
2022/06/25 13:55:03;;;;;;;3.63;2.53;;;;;;;;;;5031317;27;94397;-72
2022/06/25 13:57:30;;;;;;;2.90;2.60;;;;;;;;;;5038087;27;96983;-72
2022/06/25 14:00:03;;;;;;;2.50;2.30;;;;;;;;;;5039736;27;95471;-72
2022/06/25 14:02:33;;;;;;;2.50;2.30;;;;;;;;;;5048562;27;92771;-72
2022/06/25 14:05:00;;;;;;;2.10;1.90;;;;;;;;;;5034394;27;92417;-72
2022/06/25 14:07:26;;;;;;;2.33;2.13;;;;;;;;;;5032987;27;93075;-72
2022/06/25 14:09:52;;;;;;;4.57;2.63;;;;;;;;;;5033017;27;93271;-72
2022/06/25 14:12:19;;;;;;;2.30;2.10;;;;;;;;;;5037828;27;92437;-72
2022/06/25 14:14:45;;;;;;;8.00;2.05;;;;;;;;;;5033971;27;92864;-72
2022/06/25 14:17:11;;;;;;;3.60;1.73;;;;;;;;;;5037760;27;93377;-72
2022/06/25 14:19:38;;;;;;;3.13;1.85;;;;;;;;;;5038953;27;92542;-72
2022/06/25 14:22:04;;;;;;;2.10;1.58;;;;;;;;;;5031024;27;95380;-72
2022/06/25 14:27:16;;;;;;;2.58;1.58;;;;;;;;;;5033381;27;93851;-72
2022/06/25 14:29:42;;;;;;;3.63;2.10;;;;;;;;;;5035609;27;93274;-72
2022/06/25 14:32:10;;;;;;;2.03;1.80;;;;;;;;;;5043158;27;92498;-72
2022/06/25 14:34:36;;;;;;;2.90;1.67;;;;;;;;;;5044729;27;92434;-72
2022/06/25 14:42:32;;;;;;;2.28;1.77;;;;;;;;;;5052654;27;94078;-72
2022/06/25 14:44:58;;;;;;;1.70;1.60;;;;;;;;;;5033251;27;92531;-72
2022/06/25 14:47:26;;;;;;;3.72;1.70;;;;;;;;;;5032951;27;94845;-72
2022/06/25 14:49:53;;;;;;;3.15;2.00;;;;;;;;;;5032594;27;94108;-72
2022/06/25 14:52:19;;;;;;;7.00;1.90;;;;;;;;;;5036469;27;92580;-73
2022/06/25 14:54:46;;;;;;;1.67;1.58;;;;;;;;;;5043961;27;92442;-72
2022/06/25 14:57:12;;;;;;;5.20;3.20;;;;;;;;;;5043104;27;93321;-72
2022/06/25 14:59:38;;;;;;;6.85;5.10;;;;;;;;;;5043415;27;92944;-73
2022/06/25 15:02:05;;;;;;;5.25;4.75;;;;;;;;;;5045211;27;93893;-73
2022/06/25 15:04:31;;;;;;;4.38;3.97;;;;;;;;;;5038666;27;91731;-72
2022/06/25 15:06:58;;;;;;;9.07;4.80;;;;;;;;;;5032090;27;92716;-72
2022/06/25 15:09:24;;;;;;;5.88;4.07;;;;;;;;;;5043692;27;94236;-73
2022/06/25 15:11:50;;;;;;;5.95;4.90;;;;;;;;;;5043390;27;94860;-72
2022/06/25 15:14:17;;;;;;;7.75;4.47;;;;;;;;;;5042380;27;96497;-72
2022/06/25 15:16:43;;;;;;;7.85;4.53;;;;;;;;;;5037952;27;94781;-72
2022/06/25 15:19:09;;;;;;;4.47;3.67;;;;;;;;;;5033903;27;92592;-73